KDNS/DNS METAR and TAF weather

Enter ICAO airport designator
Station Type Date Time Source
KDNS METAR 2019/06/26 22:35 UTC NOAA

KDNS 262235Z AUTO 09007KT 10SM CLR 28/18 A3001 RMK AO2


Station Type Date Time Source
KDNS Decoded METAR 2019/06/26 22:35 UTC NOAA

Denison, IA, United States (KDNS) 41-59N 095-23W
Jun 26, 2019 - 06:35 PM EDT / 2019.06.26 2235 UTC
Wind: from the E (090 degrees) at 8 MPH (7 KT):0
Visibility: 10 mile(s):0
Sky conditions: clear
Temperature: 82 F (28 C)
Dew Point: 64 F (18 C)
Relative Humidity: 54%
Pressure (altimeter): 30.01 in. Hg (1016 hPa)
ob: KDNS 262235Z AUTO 09007KT 10SM CLR 28/18 A3001 RMK AO2
cycle: 22

Station Type Date Time Source
KDNS TAF UTC NOAA

Error!

Example: see airport list